Time;durP1;ratioP1;P1;durP2;ratioP2;P2;SDS_P1;SDS_P2;PMS_P1;PMS_P2;Temp;Humidity;BMP_temperature;BMP_pressure;BME280_temperature;BME280_humidity;BME280_pressure;Samples;Min_cycle;Max_cycle;Signal;HPM_P1;HPM_P2
2022/12/17 13:06:52;;;;;;;10.57;5.50;;;;;;;2.06;80.22;101893.56;4940545;28;20106;-66
2022/12/17 13:09:19;;;;;;;8.13;4.97;;;;;;;2.13;79.64;101889.56;4946208;28;20507;-66
2022/12/17 13:11:51;;;;;;;10.38;5.72;;;;;;;2.27;79.08;101890.63;4956170;28;20035;-66
2022/12/17 13:14:27;;;;;;;12.50;5.07;;;;;;;2.38;79.03;101888.75;4941646;28;20040;-66
2022/12/17 13:17:26;;;;;;;7.28;4.28;;;;;;;2.38;78.38;101886.88;4948198;28;20039;-65
2022/12/17 13:19:55;;;;;;;10.43;5.32;;;;;;;2.47;78.19;101879.16;4948242;29;20039;-65
2022/12/17 13:22:20;;;;;;;12.25;6.63;;;;;;;2.40;78.32;101874.13;4939592;28;20071;-66
2022/12/17 13:24:48;;;;;;;7.65;4.78;;;;;;;2.49;78.12;101883.16;4946312;28;20524;-66
2022/12/17 13:27:38;;;;;;;7.03;4.68;;;;;;;2.52;78.22;101884.44;4940128;29;20038;-66
2022/12/17 13:30:15;;;;;;;6.38;3.70;;;;;;;2.58;77.67;101884.19;4939628;29;20508;-65
2022/12/17 13:33:02;;;;;;;6.32;4.25;;;;;;;2.51;77.33;101889.00;4952338;28;20035;-66
2022/12/17 13:35:55;;;;;;;11.60;4.72;;;;;;;2.57;77.34;101890.56;4934743;29;20044;-68
2022/12/17 13:38:33;;;;;;;13.10;5.53;;;;;;;2.66;76.89;101890.78;4938037;29;20070;-65
2022/12/17 13:41:14;;;;;;;6.95;4.45;;;;;;;2.64;77.04;101885.75;4934771;29;20035;-66
2022/12/17 13:43:44;;;;;;;6.77;4.53;;;;;;;2.65;77.23;101887.34;4941272;29;20039;-65
2022/12/17 13:46:17;;;;;;;11.57;4.55;;;;;;;2.64;77.00;101885.75;4939772;28;20365;-66
2022/12/17 13:48:42;;;;;;;7.53;4.63;;;;;;;2.72;77.01;101890.53;4923691;29;20045;-66
2022/12/17 13:51:19;;;;;;;11.32;4.97;;;;;;;2.78;76.49;101891.28;4937592;29;20103;-66
2022/12/17 13:53:56;;;;;;;8.07;4.82;;;;;;;2.82;76.35;101896.84;4948245;28;20031;-66
2022/12/17 13:56:26;;;;;;;11.23;6.07;;;;;;;2.77;76.33;101899.53;4945866;29;20035;-65
2022/12/17 13:58:53;;;;;;;8.90;4.82;;;;;;;2.79;76.02;101900.84;4953309;28;20038;-65
2022/12/17 14:01:19;;;;;;;9.50;4.50;;;;;;;2.79;76.07;101900.84;4946281;28;20035;-65
2022/12/17 14:03:50;;;;;;;9.88;4.68;;;;;;;2.71;76.08;101898.75;4941773;28;20631;-67
2022/12/17 14:06:15;;;;;;;13.65;4.97;;;;;;;2.65;76.58;101913.16;4943168;28;20043;-66
2022/12/17 14:08:42;;;;;;;10.13;5.07;;;;;;;2.60;77.55;101916.59;4935962;28;20047;-67
2022/12/17 14:13:52;;;;;;;10.63;5.50;;;;;;;2.56;77.52;101923.53;4945734;28;20027;-66
2022/12/17 14:16:19;;;;;;;12.07;6.07;;;;;;;2.55;77.92;101921.13;4947534;28;20408;-66
2022/12/17 14:18:50;;;;;;;14.60;6.55;;;;;;;2.56;77.91;101933.34;4948718;28;20404;-67
2022/12/17 14:21:17;;;;;;;7.43;5.38;;;;;;;2.53;78.12;101931.25;4953173;28;20082;-66
2022/12/17 14:23:44;;;;;;;12.85;7.15;;;;;;;2.47;78.46;101933.13;4948645;28;20540;-66
2022/12/17 14:26:11;;;;;;;12.75;5.53;;;;;;;2.43;78.77;101923.28;4940312;28;20485;-67
2022/12/17 14:28:48;;;;;;;15.15;6.30;;;;;;;2.42;78.76;101925.13;4940183;28;20054;-67
2022/12/17 14:31:14;;;;;;;12.68;5.32;;;;;;;2.41;79.03;101931.53;4946979;28;20558;-66
2022/12/17 14:33:41;;;;;;;10.13;5.65;;;;;;;2.41;79.01;101938.69;4941010;28;20066;-66
2022/12/17 14:36:20;;;;;;;14.73;6.55;;;;;;;2.34;79.25;101927.56;4942749;28;20118;-66
2022/12/17 14:39:00;;;;;;;8.52;5.18;;;;;;;2.32;79.31;101935.00;4934220;29;20031;-66
2022/12/17 14:44:49;;;;;;;12.75;5.93;;;;;;;2.20;79.97;101931.81;4947074;28;20032;-66
2022/12/17 14:47:22;;;;;;;7.60;5.43;;;;;;;2.19;80.40;101932.91;4944315;28;20051;-67
2022/12/17 14:50:10;;;;;;;16.58;6.43;;;;;;;2.13;80.49;101932.06;4951906;28;20042;-66
2022/12/17 14:52:42;;;;;;;16.48;6.60;;;;;;;2.10;80.40;101932.63;4939644;28;20054;-66
2022/12/17 14:55:54;;;;;;;12.05;6.65;;;;;;;2.12;80.62;101937.66;4949797;28;20042;-67
2022/12/17 14:58:23;;;;;;;13.65;5.20;;;;;;;2.08;80.68;101939.25;4911915;28;20666;-66
2022/12/17 15:01:03;;;;;;;20.00;8.55;;;;;;;1.98;81.18;101945.38;4946731;28;20102;-65
2022/12/17 15:03:37;;;;;;;11.13;6.25;;;;;;;1.94;81.57;101943.50;4945500;28;20378;-67
2022/12/17 15:06:05;;;;;;;16.13;6.65;;;;;;;1.89;81.58;101943.50;4941009;28;20043;-67
2022/12/17 15:08:34;;;;;;;18.90;6.85;;;;;;;1.82;81.87;101944.56;4949245;28;20039;-66
2022/12/17 15:11:00;;;;;;;6.70;4.63;;;;;;;1.77;81.94;101944.56;4946476;28;20039;-66
2022/12/17 15:13:25;;;;;;;14.43;6.65;;;;;;;1.76;82.28;101947.50;4945357;28;20054;-66
2022/12/17 15:15:51;;;;;;;13.40;5.60;;;;;;;1.70;82.79;101941.34;4933570;28;20046;-66
2022/12/17 15:18:16;;;;;;;10.70;4.53;;;;;;;1.72;82.43;101949.06;4939609;28;20027;-65
2022/12/17 15:20:42;;;;;;;15.93;7.20;;;;;;;1.68;82.50;101945.34;4934436;28;20456;-64
2022/12/17 15:23:16;;;;;;;12.65;6.57;;;;;;;1.68;83.13;101959.41;4945160;28;20436;-66
2022/12/17 15:25:42;;;;;;;9.98;4.90;;;;;;;1.68;82.67;101958.63;4943062;28;20051;-67
2022/12/17 15:28:09;;;;;;;10.85;4.63;;;;;;;1.62;83.27;101954.34;4949416;28;20059;-66
2022/12/17 15:30:35;;;;;;;22.75;5.15;;;;;;;1.63;83.16;101956.75;4941828;28;20035;-66
2022/12/17 15:33:03;;;;;;;11.75;5.72;;;;;;;1.60;82.97;101953.81;4945282;28;20038;-66
2022/12/17 15:35:28;;;;;;;14.30;6.10;;;;;;;1.47;83.04;101959.63;4933498;29;20086;-65
2022/12/17 15:37:54;;;;;;;6.88;4.32;;;;;;;1.54;83.43;101960.97;4950460;28;20110;-67
2022/12/17 15:40:19;;;;;;;10.82;5.43;;;;;;;1.66;83.13;101969.50;4948051;28;20115;-66
2022/12/17 15:45:30;;;;;;;16.55;5.07;;;;;;;1.59;82.56;101963.63;4946117;28;20110;-66
2022/12/17 15:47:55;;;;;;;13.35;6.00;;;;;;;1.59;82.89;101968.13;4935098;29;20027;-66
2022/12/17 15:50:21;;;;;;;14.55;6.30;;;;;;;1.57;81.92;101962.28;4951745;28;20559;-66
2022/12/17 15:52:46;;;;;;;14.38;6.10;;;;;;;1.50;82.58;101970.53;4953350;28;20033;-65
2022/12/17 15:55:12;;;;;;;12.23;5.95;;;;;;;1.44;81.97;101971.56;4938798;28;20486;-65
2022/12/17 15:57:37;;;;;;;11.52;6.13;;;;;;;1.36;82.32;101974.72;4941084;28;20035;-65
2022/12/17 16:00:03;;;;;;;19.10;6.20;;;;;;;1.31;82.29;101971.25;4931172;29;20475;-65
2022/12/17 16:02:30;;;;;;;10.10;4.85;;;;;;;1.28;83.10;101977.88;4938739;28;20552;-66
2022/12/17 16:04:56;;;;;;;15.15;5.93;;;;;;;1.31;82.78;101973.91;4946589;28;20040;-66
2022/12/17 16:07:21;;;;;;;19.95;7.60;;;;;;;1.32;82.90;101973.63;4939935;28;20044;-66
2022/12/17 16:09:47;;;;;;;19.90;7.85;;;;;;;1.42;82.18;101975.53;4945187;28;20039;-65
2022/12/17 16:12:12;;;;;;;17.83;7.18;;;;;;;1.39;81.96;101981.38;4942195;28;20485;-65
2022/12/17 16:14:38;;;;;;;21.23;6.80;;;;;;;1.31;82.18;101981.88;4943345;29;20097;-66
2022/12/17 16:17:03;;;;;;;20.23;9.27;;;;;;;1.26;82.29;101984.50;4946269;28;20493;-65
2022/12/17 16:19:28;;;;;;;38.13;9.57;;;;;;;1.19;82.15;101979.44;4947311;28;20035;-66
2022/12/17 16:21:54;;;;;;;21.33;9.07;;;;;;;1.28;82.27;101983.16;4948539;28;20031;-65
2022/12/17 16:24:19;;;;;;;13.10;6.43;;;;;;;1.26;81.94;101985.28;4943548;29;20024;-65
2022/12/17 16:26:48;;;;;;;10.82;6.32;;;;;;;1.21;82.56;101982.63;4947341;28;20039;-65
2022/12/17 16:29:13;;;;;;;10.57;4.88;;;;;;;1.14;82.33;101979.41;4946439;28;20028;-66
2022/12/17 16:31:39;;;;;;;12.73;6.07;;;;;;;1.24;82.12;101987.41;4952602;28;20494;-65
2022/12/17 16:34:09;;;;;;;10.07;5.22;;;;;;;1.14;82.42;101992.69;4947542;28;20633;-66
2022/12/17 16:36:34;;;;;;;14.13;7.30;;;;;;;1.13;82.50;101992.91;4948135;29;20034;-66
2022/12/17 16:39:00;;;;;;;19.35;5.97;;;;;;;1.08;82.69;101985.75;4949221;28;20480;-65
2022/12/17 16:41:25;;;;;;;12.63;5.93;;;;;;;1.04;83.12;101997.13;4949465;28;20031;-66
2022/12/17 16:43:51;;;;;;;10.35;5.07;;;;;;;0.95;83.10;101999.44;4947101;28;20492;-65
2022/12/17 16:46:27;;;;;;;12.68;5.88;;;;;;;0.85;83.22;102004.72;4960132;28;20027;-65
2022/12/17 16:48:54;;;;;;;9.70;4.72;;;;;;;0.87;83.49;102000.75;4943538;28;20457;-66
2022/12/17 16:51:22;;;;;;;7.70;4.75;;;;;;;0.86;83.51;102015.06;4966298;28;20030;-65
2022/12/17 16:53:47;;;;;;;13.15;5.25;;;;;;;0.87;83.04;102002.63;4950999;28;20416;-65
2022/12/17 16:56:19;;;;;;;8.95;5.28;;;;;;;0.88;83.53;102001.53;4969247;28;20031;-66
2022/12/17 16:58:44;;;;;;;11.98;5.55;;;;;;;0.89;83.12;102006.59;4950277;28;20452;-66
2022/12/17 17:01:10;;;;;;;11.02;5.57;;;;;;;0.90;83.39;102002.09;4952232;29;20118;-64
2022/12/17 17:03:40;;;;;;;9.00;5.63;;;;;;;0.85;82.71;101999.41;4951130;28;20039;-66
2022/12/17 17:06:06;;;;;;;11.90;5.35;;;;;;;0.81;82.67;101987.72;4947505;28;20046;-65
2022/12/17 17:08:36;;;;;;;10.18;4.90;;;;;;;0.75;83.18;101988.75;4948232;29;20774;-65
2022/12/17 17:11:14;;;;;;;10.23;6.88;;;;;;;0.74;82.76;102000.38;4952680;29;20078;-64
2022/12/17 17:13:40;;;;;;;12.20;6.28;;;;;;;0.68;83.62;102007.50;4950429;28;20043;-64
2022/12/17 17:16:07;;;;;;;15.52;6.68;;;;;;;0.61;83.51;101995.53;4949750;28;20125;-64
2022/12/17 17:18:34;;;;;;;9.13;4.88;;;;;;;0.68;83.73;102006.72;4947809;29;20050;-66
2022/12/17 17:21:18;;;;;;;10.82;5.35;;;;;;;0.67;83.19;102002.47;4948363;28;20045;-65
2022/12/17 17:24:05;;;;;;;10.27;6.13;;;;;;;0.61;84.05;102006.13;4955052;28;20083;-65
2022/12/17 17:26:33;;;;;;;6.70;4.35;;;;;;;0.62;83.80;102018.34;4953329;28;20038;-65
2022/12/17 17:28:58;;;;;;;11.23;5.55;;;;;;;0.62;83.64;102018.34;4952081;28;20089;-65
2022/12/17 17:31:24;;;;;;;8.20;4.50;;;;;;;0.61;83.38;102008.78;4957410;28;20032;-65
2022/12/17 17:33:50;;;;;;;11.00;5.70;;;;;;;0.47;83.73;102013.72;4947136;28;20620;-66
2022/12/17 17:36:21;;;;;;;11.63;5.90;;;;;;;0.52;84.41;102013.75;4950329;28;20031;-66
2022/12/17 17:38:49;;;;;;;6.93;4.70;;;;;;;0.55;84.25;102015.91;4935445;29;20027;-65
2022/12/17 17:41:20;;;;;;;12.07;5.90;;;;;;;0.56;84.25;102027.31;4941639;29;20376;-66
2022/12/17 17:43:46;;;;;;;12.15;4.75;;;;;;;0.57;84.52;102031.53;4958537;28;20412;-66
2022/12/17 17:46:18;;;;;;;7.78;4.75;;;;;;;0.49;85.09;102024.06;4956326;28;20081;-66
2022/12/17 17:48:44;;;;;;;;;;;;;;;0.55;84.74;102025.69;4952302;28;20045;-66
2022/12/17 17:51:16;;;;;;;9.23;4.53;;;;;;;0.54;84.35;102034.72;4950718;28;21208;-65
2022/12/17 17:53:43;;;;;;;16.90;5.60;;;;;;;0.46;84.83;102028.03;4931716;29;20078;-65
2022/12/17 17:56:17;;;;;;;15.73;7.03;;;;;;;0.44;84.55;102037.28;4947948;28;20043;-64
2022/12/17 17:58:49;;;;;;;7.97;4.85;;;;;;;0.47;85.16;102039.41;4946722;29;20047;-65
2022/12/17 18:01:22;;;;;;;12.85;4.88;;;;;;;0.46;84.93;102030.69;4940001;28;20460;-64
2022/12/17 18:03:47;;;;;;;18.90;7.82;;;;;;;0.41;85.20;102035.94;4939321;29;20445;-65
2022/12/17 18:06:13;;;;;;;8.05;5.05;;;;;;;0.48;85.27;102038.38;4936899;28;20035;-66
2022/12/17 18:08:40;;;;;;;10.55;6.18;;;;;;;0.38;84.67;102043.59;4951013;28;20039;-66
2022/12/17 18:11:10;;;;;;;11.25;6.55;;;;;;;0.36;85.60;102046.50;4952118;29;20039;-65
2022/12/17 18:13:54;;;;;;;16.53;7.60;;;;;;;0.43;85.07;102040.97;4938182;29;20066;-65
2022/12/17 18:16:38;;;;;;;15.25;7.32;;;;;;;0.38;85.35;102047.03;4946878;28;20118;-65
2022/12/17 18:19:06;;;;;;;15.98;6.30;;;;;;;0.38;85.30;102040.94;4947160;29;20050;-65
2022/12/17 18:21:32;;;;;;;7.70;4.75;;;;;;;0.48;85.02;102047.13;4947276;29;20624;-66
2022/12/17 18:24:00;;;;;;;11.38;6.03;;;;;;;0.45;84.60;102052.91;4951899;28;20051;-66
2022/12/17 18:26:27;;;;;;;13.25;7.55;;;;;;;0.29;85.31;102047.75;4953373;28;20035;-66
2022/12/17 18:28:53;;;;;;;14.05;6.00;;;;;;;-0.17;87.69;102063.19;4952215;28;20496;-65
2022/12/17 18:31:21;;;;;;;8.40;5.68;;;;;;;-0.01;87.57;102059.66;4938418;28;20075;-65
2022/12/17 18:33:50;;;;;;;9.80;5.90;;;;;;;0.19;86.94;102061.69;4954068;28;20098;-66
2022/12/17 18:36:22;;;;;;;17.40;6.97;;;;;;;0.18;86.89;102062.72;4932675;29;20464;-66
2022/12/17 18:38:54;;;;;;;20.33;5.82;;;;;;;0.21;87.03;102058.78;4951172;28;20094;-66
2022/12/17 18:44:05;;;;;;;13.80;5.63;;;;;;;-0.23;87.87;102071.28;4964661;28;20031;-66
2022/12/17 18:46:31;;;;;;;12.15;6.28;;;;;;;-0.09;87.78;102073.31;4942112;29;20023;-66
2022/12/17 18:48:59;;;;;;;14.40;5.57;;;;;;;-0.02;88.21;102081.09;4926575;28;20484;-66
2022/12/17 18:51:25;;;;;;;12.70;6.13;;;;;;;0.02;88.02;102070.78;4962980;28;20039;-66
2022/12/17 18:53:51;;;;;;;12.10;6.55;;;;;;;-0.07;88.03;102081.00;4942324;28;20032;-66
2022/12/17 18:56:16;;;;;;;6.65;4.45;;;;;;;-0.01;87.90;102080.03;4961677;28;20041;-66
2022/12/17 18:58:42;;;;;;;11.30;5.45;;;;;;;0.03;87.23;102082.97;4942763;29;20654;-66
2022/12/17 19:01:17;;;;;;;9.57;5.68;;;;;;;0.03;87.50;102082.97;4949518;29;20102;-66
2022/12/17 19:03:43;;;;;;;12.00;5.13;;;;;;;-0.07;88.25;102089.75;4948013;28;20038;-67
2022/12/17 19:06:08;;;;;;;8.82;4.82;;;;;;;-0.07;87.72;102084.47;4948376;28;20027;-66
2022/12/17 19:08:34;;;;;;;6.93;4.68;;;;;;;-0.05;87.98;102092.16;4951304;29;20027;-67
2022/12/17 19:11:07;;;;;;;5.82;4.07;;;;;;;-0.09;87.62;102094.50;4945040;28;20139;-66
2022/12/17 19:13:35;;;;;;;14.82;6.03;;;;;;;-0.12;87.93;102100.28;4942289;29;20034;-66
2022/12/17 19:16:09;;;;;;;15.10;5.15;;;;;;;0.04;87.46;102095.94;4952000;28;20050;-66
2022/12/17 19:18:36;;;;;;;15.32;6.00;;;;;;;-0.20;87.66;102087.50;4951499;28;20339;-67
2022/12/17 19:21:01;;;;;;;8.10;4.88;;;;;;;-0.07;87.78;102096.88;4944115;28;20662;-67
2022/12/17 19:23:28;;;;;;;10.80;4.30;;;;;;;-0.05;87.64;102098.25;4950429;29;20066;-66
2022/12/17 19:25:55;;;;;;;10.98;6.03;;;;;;;-0.14;87.60;102102.38;4949077;28;20023;-67
2022/12/17 19:28:21;;;;;;;15.63;6.70;;;;;;;0.00;87.13;102106.22;4934861;28;20035;-66
2022/12/17 19:30:46;;;;;;;7.18;4.25;;;;;;;0.05;86.75;102116.09;4932799;28;20514;-65
2022/12/17 19:33:12;;;;;;;10.55;5.45;;;;;;;0.08;87.08;102126.16;4946242;28;20035;-65
2022/12/17 19:35:37;;;;;;;11.18;5.38;;;;;;;0.11;86.43;102115.09;4933863;28;20091;-65
2022/12/17 19:38:03;;;;;;;20.13;6.28;;;;;;;0.17;85.77;102124.69;4933358;28;20457;-66
2022/12/17 19:40:28;;;;;;;8.38;5.95;;;;;;;0.08;85.52;102117.44;4941416;28;20039;-67
2022/12/17 19:42:55;;;;;;;13.50;5.57;;;;;;;0.07;85.54;102116.66;4943021;28;20035;-66
2022/12/17 19:45:20;;;;;;;13.40;5.82;;;;;;;0.09;85.22;102119.84;4930790;28;20048;-63
2022/12/17 19:47:47;;;;;;;9.38;5.32;;;;;;;0.14;84.69;102127.81;4942593;28;20042;-65
2022/12/17 19:50:12;;;;;;;7.93;4.57;;;;;;;0.05;84.76;102125.88;4939395;28;20034;-65
2022/12/17 19:52:38;;;;;;;8.70;5.65;;;;;;;0.00;85.36;102122.13;4942869;28;20424;-65
2022/12/17 19:55:04;;;;;;;14.70;5.47;;;;;;;0.02;85.58;102121.88;4955814;28;20042;-65
2022/12/17 19:57:31;;;;;;;9.50;5.47;;;;;;;-0.07;84.92;102126.81;4934547;28;20135;-65
2022/12/17 19:59:56;;;;;;;12.45;5.18;;;;;;;-0.10;85.64;102124.63;4946496;29;20033;-66
2022/12/17 20:02:22;;;;;;;8.10;4.80;;;;;;;-0.21;84.86;102128.22;4952851;28;20459;-65
2022/12/17 20:04:47;;;;;;;11.50;5.43;;;;;;;-0.27;85.41;102129.19;4937360;28;20043;-65
2022/12/17 20:07:12;;;;;;;7.28;5.35;;;;;;;-0.19;85.32;102130.63;4947118;28;20037;-65
2022/12/17 20:09:39;;;;;;;19.17;6.32;;;;;;;-0.29;85.11;102126.00;4949445;28;20074;-67
2022/12/17 20:12:05;;;;;;;7.55;4.75;;;;;;;-0.40;85.06;102128.75;4940852;28;20023;-65
2022/12/17 20:14:33;;;;;;;11.38;5.05;;;;;;;-0.31;85.93;102125.44;4931447;28;20623;-65
2022/12/17 20:17:00;;;;;;;6.45;4.60;;;;;;;-0.42;85.76;102129.00;4935510;29;20035;-67
2022/12/17 20:19:30;;;;;;;5.72;4.38;;;;;;;-0.46;86.37;102137.69;4935216;28;20094;-65
2022/12/17 20:21:56;;;;;;;14.13;6.00;;;;;;;-0.54;86.41;102144.19;4944729;28;20024;-66
2022/12/17 20:24:22;;;;;;;11.30;4.80;;;;;;;-0.51;86.64;102130.50;4935521;28;20065;-66
2022/12/17 20:26:49;;;;;;;5.90;4.20;;;;;;;-0.33;86.08;102124.13;4943324;28;20032;-66
2022/12/17 20:29:15;;;;;;;9.82;4.72;;;;;;;-0.29;85.53;102125.22;4936866;28;20039;-66
2022/12/17 20:31:44;;;;;;;9.70;5.65;;;;;;;-0.48;85.86;102126.53;4940592;28;20039;-66
2022/12/17 20:34:12;;;;;;;6.45;4.38;;;;;;;-0.45;86.23;102132.16;4941894;28;20039;-66
2022/12/17 20:36:39;;;;;;;12.73;4.80;;;;;;;-0.35;86.48;102134.13;4937784;29;20039;-66
2022/12/17 20:39:05;;;;;;;9.50;4.78;;;;;;;-0.38;85.96;102138.06;4936790;28;20035;-66
2022/12/17 20:41:31;;;;;;;12.13;5.25;;;;;;;-0.66;86.19;102137.41;4954102;28;20040;-66
2022/12/17 20:44:02;;;;;;;6.40;4.35;;;;;;;-0.52;86.43;102141.31;4943606;28;20122;-66
2022/12/17 20:46:27;;;;;;;9.93;5.53;;;;;;;-0.47;85.40;102146.66;4941837;28;20334;-66
2022/12/17 20:48:53;;;;;;;7.55;4.68;;;;;;;-0.63;86.27;102142.19;4936309;28;20043;-66
2022/12/17 20:51:24;;;;;;;12.60;3.85;;;;;;;-0.59;85.95;102149.41;4943433;29;20027;-66
2022/12/17 20:53:50;;;;;;;7.60;4.82;;;;;;;-0.66;86.31;102145.34;4941073;29;20083;-66
2022/12/17 20:56:28;;;;;;;10.88;4.80;;;;;;;-0.59;86.35;102143.31;4945196;28;20046;-66
2022/12/17 20:59:05;;;;;;;7.65;4.75;;;;;;;-0.49;85.86;102141.63;4939438;28;20039;-66
2022/12/17 21:01:32;;;;;;;11.90;5.28;;;;;;;-0.50;85.37;102147.13;4939374;28;20038;-66
2022/12/17 21:04:19;;;;;;;11.60;5.45;;;;;;;-0.57;85.12;102147.34;4938944;28;20122;-66
2022/12/17 21:06:46;;;;;;;6.57;4.05;;;;;;;-0.70;85.55;102145.03;4900281;29;20131;-67
2022/12/17 21:09:13;;;;;;;13.80;4.90;;;;;;;-0.78;85.71;102148.09;4907209;29;20047;-66
2022/12/17 21:11:39;;;;;;;6.03;4.38;;;;;;;-0.70;85.96;102149.50;4904163;29;20688;-66
2022/12/17 21:14:07;;;;;;;9.07;4.72;;;;;;;-0.67;84.90;102151.66;4904932;29;20040;-66
2022/12/17 21:16:34;;;;;;;9.05;4.78;;;;;;;-0.62;85.18;102151.75;4902154;29;20031;-66
2022/12/17 21:19:01;;;;;;;7.30;4.05;;;;;;;-0.70;85.30;102152.97;4892761;29;20123;-66
2022/12/17 21:21:48;;;;;;;9.07;5.35;;;;;;;-0.65;85.10;102155.69;4890687;29;20079;-66
2022/12/17 21:24:13;;;;;;;10.07;4.25;;;;;;;-0.77;85.70;102148.91;4856715;29;20516;-66
2022/12/17 21:26:41;;;;;;;10.70;5.25;;;;;;;-0.91;85.85;102154.50;4856714;29;20503;-66
2022/12/17 21:29:08;;;;;;;9.70;4.72;;;;;;;-0.85;85.90;102152.72;4856518;29;20143;-66
2022/12/17 21:31:43;;;;;;;9.68;5.53;;;;;;;-0.85;85.62;102155.38;4851217;29;20053;-66
2022/12/17 21:34:15;;;;;;;7.03;4.35;;;;;;;-0.67;85.55;102167.53;4855204;29;20068;-66
2022/12/17 21:36:41;;;;;;;12.57;5.85;;;;;;;-0.89;85.90;102161.41;4836087;29;20061;-66
2022/12/17 21:39:08;;;;;;;6.20;4.32;;;;;;;-0.75;85.74;102174.03;4859086;29;20554;-66
2022/12/17 21:41:35;;;;;;;8.93;5.18;;;;;;;-0.75;85.65;102187.25;4846371;29;20092;-66
2022/12/17 21:44:07;;;;;;;4.93;3.53;;;;;;;-1.01;86.05;102188.69;4886655;29;20075;-66
2022/12/17 21:46:32;;;;;;;9.68;4.45;;;;;;;-1.03;86.30;102187.34;4907973;29;20032;-66
2022/12/17 21:49:00;;;;;;;9.43;5.18;;;;;;;-0.92;85.82;102191.75;4889982;29;20647;-66
2022/12/17 21:51:26;;;;;;;7.00;4.43;;;;;;;-1.05;86.44;102186.78;4906535;29;20470;-66
2022/12/17 21:54:01;;;;;;;19.00;4.55;;;;;;;-0.93;86.29;102187.50;4905261;29;20119;-65
2022/12/17 21:56:28;;;;;;;9.02;5.85;;;;;;;-0.85;85.56;102181.78;4873988;29;21955;-66
2022/12/17 21:58:58;;;;;;;9.02;4.22;;;;;;;-0.82;85.23;102193.75;4908978;29;20059;-65
2022/12/17 22:01:27;;;;;;;8.30;3.67;;;;;;;-0.95;84.95;102184.31;4926575;28;20122;-66
2022/12/17 22:03:55;;;;;;;9.93;5.70;;;;;;;-0.98;84.76;102184.78;4942270;28;20043;-66
2022/12/17 22:06:24;;;;;;;7.78;4.35;;;;;;;-0.93;84.97;102182.22;4942985;28;20086;-65
2022/12/17 22:08:50;;;;;;;12.00;4.72;;;;;;;-0.98;85.16;102185.56;4938984;28;20086;-66
2022/12/17 22:11:24;;;;;;;13.18;5.05;;;;;;;-1.03;85.49;102193.41;4938917;28;20765;-66
2022/12/17 22:14:02;;;;;;;9.27;4.35;;;;;;;-0.93;85.00;102200.72;4951583;28;20050;-66
2022/12/17 22:16:41;;;;;;;10.02;4.13;;;;;;;-1.04;84.84;102191.00;4945654;28;20474;-66
2022/12/17 22:19:09;;;;;;;10.48;4.35;;;;;;;-1.01;85.04;102199.25;4940449;28;20050;-66
2022/12/17 22:21:38;;;;;;;3.33;2.95;;;;;;;-0.97;84.44;102197.75;4943444;28;20119;-68
2022/12/17 22:24:04;;;;;;;9.60;4.75;;;;;;;-1.13;85.11;102189.81;4936706;28;20043;-66
2022/12/17 22:26:30;;;;;;;9.70;3.50;;;;;;;-1.08;85.11;102200.44;4937703;28;20039;-66
2022/12/17 22:28:56;;;;;;;7.63;3.97;;;;;;;-1.01;85.00;102185.25;4936237;28;20046;-67
2022/12/17 22:34:10;;;;;;;10.63;4.85;;;;;;;-1.01;85.07;102193.19;4943388;28;20102;-66
2022/12/17 22:36:35;;;;;;;6.30;4.78;;;;;;;-1.04;84.79;102196.28;4940439;28;20476;-66
2022/12/17 22:39:04;;;;;;;8.13;4.10;;;;;;;-1.10;85.05;102191.97;4944416;28;20039;-65
2022/12/17 22:44:13;;;;;;;11.98;4.82;;;;;;;-1.13;84.78;102200.38;4950490;28;20046;-66
2022/12/17 22:46:39;;;;;;;7.57;4.72;;;;;;;-1.13;84.87;102205.66;4942250;28;20540;-66
2022/12/17 22:49:05;;;;;;;6.38;3.88;;;;;;;-1.00;84.59;102194.78;4941420;28;20055;-65
2022/12/17 22:51:31;;;;;;;9.00;4.43;;;;;;;-1.21;84.44;102201.56;4939584;28;20067;-65
2022/12/17 22:54:00;;;;;;;16.05;4.60;;;;;;;-1.23;84.38;102198.38;4940928;28;20035;-66
2022/12/17 22:56:26;;;;;;;11.00;4.53;;;;;;;-1.25;84.60;102202.28;4944903;28;20061;-66
2022/12/17 22:58:51;;;;;;;6.80;3.30;;;;;;;-1.25;85.17;102199.63;4927640;29;20027;-67
2022/12/17 23:01:17;;;;;;;8.05;3.35;;;;;;;-1.29;84.67;102206.44;4943257;28;20106;-67
2022/12/17 23:03:44;;;;;;;3.92;2.95;;;;;;;-1.25;84.89;102204.91;4943974;28;20031;-67
2022/12/17 23:06:13;;;;;;;6.47;3.92;;;;;;;-1.26;84.65;102208.59;4957248;28;20400;-67
2022/12/17 23:08:39;;;;;;;3.63;3.03;;;;;;;-1.36;85.04;102208.41;4946448;28;20039;-67
2022/12/17 23:11:10;;;;;;;18.85;3.00;;;;;;;-1.35;85.20;102199.44;4952008;28;20101;-67
2022/12/17 23:13:35;;;;;;;6.32;3.47;;;;;;;-1.40;85.01;102207.28;4945963;28;20078;-67
2022/12/17 23:16:02;;;;;;;10.38;4.72;;;;;;;-1.53;85.29;102203.06;4944358;28;20063;-67
2022/12/17 23:18:27;;;;;;;5.15;4.13;;;;;;;-1.33;85.25;102202.66;4940237;29;20045;-67
2022/12/17 23:20:53;;;;;;;7.45;3.42;;;;;;;-1.28;84.81;102200.13;4946990;28;20113;-67
2022/12/17 23:23:18;;;;;;;7.10;3.55;;;;;;;-1.25;85.03;102195.16;4937483;28;20520;-67
2022/12/17 23:25:44;;;;;;;7.00;3.75;;;;;;;-1.26;84.23;102193.53;4933766;28;20497;-67
2022/12/17 23:28:09;;;;;;;5.22;3.75;;;;;;;-1.22;84.54;102193.88;4941257;28;20039;-67
2022/12/17 23:30:36;;;;;;;3.78;3.00;;;;;;;-1.17;83.97;102186.84;4946461;28;20101;-67
2022/12/17 23:33:04;;;;;;;4.43;3.20;;;;;;;-1.27;83.75;102199.88;4937019;28;20046;-67
2022/12/17 23:35:30;;;;;;;7.72;4.32;;;;;;;-1.28;84.05;102194.84;4949716;28;20035;-66
2022/12/17 23:37:56;;;;;;;13.27;4.28;;;;;;;-1.28;83.46;102200.13;4935417;29;20131;-67
2022/12/17 23:40:22;;;;;;;7.57;3.72;;;;;;;-1.51;84.03;102205.50;4932558;28;20501;-67
2022/12/17 23:42:48;;;;;;;5.40;3.75;;;;;;;-1.56;84.32;102203.56;4946965;29;20481;-67
2022/12/17 23:45:14;;;;;;;3.30;3.00;;;;;;;-1.47;84.69;102206.66;4952463;28;20480;-67
2022/12/17 23:47:40;;;;;;;7.10;4.20;;;;;;;-1.60;84.99;102213.00;4945159;28;20068;-66
2022/12/17 23:50:08;;;;;;;9.77;4.22;;;;;;;-1.47;84.46;102204.78;4951584;28;20041;-67
2022/12/17 23:52:34;;;;;;;5.43;3.50;;;;;;;-1.45;84.30;102202.72;4951015;28;20504;-67
2022/12/17 23:54:59;;;;;;;2.83;2.60;;;;;;;-1.38;83.97;102192.81;4945821;28;20071;-67
2022/12/17 23:57:25;;;;;;;8.20;3.75;;;;;;;-1.61;83.97;102202.66;4949940;29;20783;-67
2022/12/17 23:59:50;;;;;;;5.50;2.88;;;;;;;-1.67;84.81;102196.50;4951743;28;20039;-67
